Time;durP1;ratioP1;P1;durP2;ratioP2;P2;SDS_P1;SDS_P2;PMS_P1;PMS_P2;Temp;Humidity;BMP_temperature;BMP_pressure;BME280_temperature;BME280_humidity;BME280_pressure;Samples;Min_cycle;Max_cycle;Signal;HPM_P1;HPM_P2
2022/11/15 00:00:30;;;;;;;4.80;2.72;;;;;;;;;;5012101;28;20092;-67
2022/11/15 00:02:56;;;;;;;4.18;2.60;;;;;;;;;;5010974;28;20046;-67
2022/11/15 00:05:23;;;;;;;3.50;2.45;;;;;;;;;;5012185;28;20463;-67
2022/11/15 00:07:49;;;;;;;3.90;2.95;;;;;;;;;;5011862;28;20054;-68
2022/11/15 00:10:21;;;;;;;4.75;2.90;;;;;;;;;;5012086;28;20423;-67
2022/11/15 00:12:48;;;;;;;3.58;2.72;;;;;;;;;;5011974;28;20045;-68
2022/11/15 00:15:14;;;;;;;4.95;2.97;;;;;;;;;;5012011;28;20046;-68
2022/11/15 00:17:41;;;;;;;4.47;3.22;;;;;;;;;;5012143;28;20053;-67
2022/11/15 00:20:08;;;;;;;4.80;3.45;;;;;;;;;;5011668;28;20148;-68
2022/11/15 00:22:35;;;;;;;5.43;3.58;;;;;;;;;;5012214;28;20054;-67
2022/11/15 00:25:01;;;;;;;6.22;3.75;;;;;;;;;;5012003;28;20092;-67
2022/11/15 00:27:28;;;;;;;6.15;3.80;;;;;;;;;;5011994;28;20053;-68
2022/11/15 00:29:55;;;;;;;7.38;3.92;;;;;;;;;;5011324;28;20050;-67
2022/11/15 00:32:21;;;;;;;6.15;3.92;;;;;;;;;;5011792;28;20203;-67
2022/11/15 00:34:48;;;;;;;5.78;3.40;;;;;;;;;;5015962;28;20108;-67
2022/11/15 00:37:14;;;;;;;5.95;3.38;;;;;;;;;;5015935;28;20137;-67
2022/11/15 00:39:41;;;;;;;6.70;3.10;;;;;;;;;;5015236;28;20519;-67
2022/11/15 00:42:07;;;;;;;4.60;3.30;;;;;;;;;;5015800;28;20050;-67
2022/11/15 00:44:34;;;;;;;5.18;3.40;;;;;;;;;;5015628;28;20045;-67
2022/11/15 00:47:01;;;;;;;4.80;3.40;;;;;;;;;;5015854;28;20103;-68
2022/11/15 00:49:27;;;;;;;3.85;3.45;;;;;;;;;;5015239;28;20057;-67
2022/11/15 00:51:54;;;;;;;5.05;3.30;;;;;;;;;;5015464;28;20085;-67
2022/11/15 00:54:20;;;;;;;4.85;3.55;;;;;;;;;;5015417;28;20489;-67
2022/11/15 00:56:47;;;;;;;5.35;3.40;;;;;;;;;;5015310;28;20077;-68
2022/11/15 00:59:13;;;;;;;7.53;3.20;;;;;;;;;;5014724;28;20046;-67
2022/11/15 01:01:40;;;;;;;5.43;4.25;;;;;;;;;;5015371;28;20077;-67
2022/11/15 01:04:07;;;;;;;5.20;3.42;;;;;;;;;;5015407;28;20559;-68
2022/11/15 01:06:33;;;;;;;4.72;2.72;;;;;;;;;;5015429;28;20054;-67
2022/11/15 01:09:00;;;;;;;6.07;2.60;;;;;;;;;;5014720;28;20096;-67
2022/11/15 01:11:26;;;;;;;5.60;2.55;;;;;;;;;;5015835;28;20081;-68
2022/11/15 01:13:53;;;;;;;4.55;2.90;;;;;;;;;;5015590;28;20042;-68
2022/11/15 01:16:20;;;;;;;3.47;2.65;;;;;;;;;;4997829;28;20053;-67
2022/11/15 01:18:46;;;;;;;3.47;2.88;;;;;;;;;;5014692;28;20568;-67
2022/11/15 01:21:15;;;;;;;4.45;2.60;;;;;;;;;;5014003;28;20132;-67
2022/11/15 01:23:41;;;;;;;4.45;2.92;;;;;;;;;;5014977;28;20073;-68
2022/11/15 01:26:11;;;;;;;5.80;3.05;;;;;;;;;;5015054;28;20120;-67
2022/11/15 01:28:39;;;;;;;4.57;3.17;;;;;;;;;;5014651;28;20050;-67
2022/11/15 01:31:14;;;;;;;6.07;3.00;;;;;;;;;;5014595;28;20085;-67
2022/11/15 01:33:41;;;;;;;5.60;3.00;;;;;;;;;;5014880;28;20042;-67
2022/11/15 01:36:14;;;;;;;4.68;2.88;;;;;;;;;;5014915;28;20062;-68
2022/11/15 01:38:41;;;;;;;5.15;3.58;;;;;;;;;;5012888;28;20050;-67
2022/11/15 01:41:16;;;;;;;6.30;3.67;;;;;;;;;;5014440;28;20562;-67
2022/11/15 01:43:42;;;;;;;3.88;3.05;;;;;;;;;;5013348;28;20133;-68
2022/11/15 01:46:25;;;;;;;6.57;3.83;;;;;;;;;;5014767;28;20125;-67
2022/11/15 01:48:53;;;;;;;4.05;3.63;;;;;;;;;;5014061;28;20049;-67
2022/11/15 01:51:21;;;;;;;6.20;3.53;;;;;;;;;;5013208;28;20485;-67
2022/11/15 01:53:49;;;;;;;5.35;3.50;;;;;;;;;;5029476;28;20050;-68
2022/11/15 01:56:21;;;;;;;8.80;4.38;;;;;;;;;;4993985;28;20472;-67
2022/11/15 01:58:47;;;;;;;6.05;4.10;;;;;;;;;;4992246;28;20096;-67
2022/11/15 02:01:14;;;;;;;5.65;3.47;;;;;;;;;;4994684;28;20501;-68
2022/11/15 02:03:48;;;;;;;5.35;3.25;;;;;;;;;;5028089;28;20130;-68
2022/11/15 02:06:15;;;;;;;5.28;3.70;;;;;;;;;;5013739;28;20054;-67
2022/11/15 02:08:42;;;;;;;6.45;3.90;;;;;;;;;;5013661;28;20050;-67
2022/11/15 02:11:09;;;;;;;5.93;4.00;;;;;;;;;;5012807;28;20505;-67
2022/11/15 02:13:36;;;;;;;5.72;3.65;;;;;;;;;;5013023;28;20085;-67
2022/11/15 02:16:10;;;;;;;4.97;3.50;;;;;;;;;;5012961;28;20107;-68
2022/11/15 02:18:44;;;;;;;8.65;3.65;;;;;;;;;;5012355;28;20081;-68
2022/11/15 02:21:16;;;;;;;5.75;3.78;;;;;;;;;;5012578;28;20049;-68
2022/11/15 02:24:03;;;;;;;4.93;3.42;;;;;;;;;;5014056;28;20108;-67
2022/11/15 02:26:56;;;;;;;4.13;3.28;;;;;;;;;;5012714;28;20100;-67
2022/11/15 02:29:34;;;;;;;5.25;3.40;;;;;;;;;;5012522;28;20053;-67
2022/11/15 02:32:09;;;;;;;5.90;3.38;;;;;;;;;;5013771;28;20648;-68
2022/11/15 02:34:41;;;;;;;5.43;3.67;;;;;;;;;;4996718;28;20116;-67
2022/11/15 02:37:54;;;;;;;6.15;3.85;;;;;;;;;;5013717;28;20104;-67
2022/11/15 02:40:21;;;;;;;7.57;4.10;;;;;;;;;;5013248;28;20103;-68
2022/11/15 02:45:52;;;;;;;4.85;3.67;;;;;;;;;;4999231;28;20061;-67
2022/11/15 02:48:19;;;;;;;6.43;3.50;;;;;;;;;;4996077;28;20058;-67
2022/11/15 02:50:45;;;;;;;4.78;4.03;;;;;;;;;;4992434;28;20046;-68
2022/11/15 02:53:12;;;;;;;6.15;4.32;;;;;;;;;;5006896;28;20093;-68
2022/11/15 02:55:43;;;;;;;5.80;4.10;;;;;;;;;;4992288;28;20053;-67
2022/11/15 02:58:47;;;;;;;6.70;3.95;;;;;;;;;;4992351;28;20421;-67
2022/11/15 03:01:51;;;;;;;5.13;3.67;;;;;;;;;;5008670;28;20057;-68
2022/11/15 03:04:47;;;;;;;6.32;3.80;;;;;;;;;;4993776;28;20476;-68
2022/11/15 03:07:21;;;;;;;5.45;3.65;;;;;;;;;;5008682;28;20112;-67
2022/11/15 03:10:12;;;;;;;5.25;3.70;;;;;;;;;;4991728;28;20416;-68
2022/11/15 03:12:39;;;;;;;6.53;3.70;;;;;;;;;;4992545;28;20101;-67
2022/11/15 03:15:07;;;;;;;4.35;3.30;;;;;;;;;;4993529;28;20058;-68
2022/11/15 03:17:36;;;;;;;5.97;3.33;;;;;;;;;;4999364;28;20054;-68
2022/11/15 03:20:04;;;;;;;6.28;3.97;;;;;;;;;;5011294;28;20112;-68
2022/11/15 03:22:35;;;;;;;4.43;3.38;;;;;;;;;;5027929;28;20108;-68
2022/11/15 03:25:05;;;;;;;4.43;3.33;;;;;;;;;;4995682;28;20069;-69
2022/11/15 03:27:35;;;;;;;4.22;2.92;;;;;;;;;;5011780;28;20045;-67
2022/11/15 03:30:05;;;;;;;6.70;3.28;;;;;;;;;;5011073;28;20093;-67
2022/11/15 03:32:36;;;;;;;5.20;3.35;;;;;;;;;;5011472;28;20065;-67
2022/11/15 03:35:07;;;;;;;5.38;4.03;;;;;;;;;;4995485;28;20502;-68
2022/11/15 03:37:37;;;;;;;5.55;3.80;;;;;;;;;;4995412;28;20497;-68
2022/11/15 03:40:04;;;;;;;4.88;3.20;;;;;;;;;;5010969;28;20057;-67
2022/11/15 03:42:51;;;;;;;6.00;3.28;;;;;;;;;;5012359;28;20081;-69
2022/11/15 03:45:21;;;;;;;5.80;3.42;;;;;;;;;;5010854;28;20428;-67
2022/11/15 03:47:51;;;;;;;3.88;3.50;;;;;;;;;;5011945;28;20058;-68
2022/11/15 03:50:20;;;;;;;4.03;3.22;;;;;;;;;;5011643;28;20472;-67
2022/11/15 03:52:47;;;;;;;5.57;3.88;;;;;;;;;;5011295;28;20104;-67
2022/11/15 03:55:17;;;;;;;5.07;3.88;;;;;;;;;;5027653;28;20115;-67
2022/11/15 03:57:44;;;;;;;4.88;3.92;;;;;;;;;;5012149;28;20084;-67
2022/11/15 04:00:11;;;;;;;5.10;3.60;;;;;;;;;;5011858;28;20058;-67
2022/11/15 04:02:38;;;;;;;7.30;3.65;;;;;;;;;;5010912;28;20058;-67
2022/11/15 04:05:05;;;;;;;6.53;3.70;;;;;;;;;;5012262;28;20046;-67
2022/11/15 04:07:31;;;;;;;5.85;3.20;;;;;;;;;;5011351;28;20085;-67
2022/11/15 04:10:05;;;;;;;4.80;2.97;;;;;;;;;;5010142;28;20088;-67
2022/11/15 04:12:43;;;;;;;5.40;2.97;;;;;;;;;;5012468;28;20112;-67
2022/11/15 04:15:11;;;;;;;4.95;2.60;;;;;;;;;;5012233;28;20551;-67
2022/11/15 04:17:46;;;;;;;3.58;2.60;;;;;;;;;;5017706;28;20046;-68
2022/11/15 04:26:10;;;;;;;5.15;2.92;;;;;;;;;;5014861;28;20489;-67
2022/11/15 04:29:33;;;;;;;5.70;3.38;;;;;;;;;;5013052;28;20045;-66
2022/11/15 04:31:23;;;;;;;4.50;3.60;;;;;;;;;;5013729;28;20046;-68
2022/11/15 04:33:50;;;;;;;4.20;3.70;;;;;;;;;;5018148;28;20128;-68
2022/11/15 04:39:02;;;;;;;5.88;3.88;;;;;;;;;;5018701;28;20050;-68
2022/11/15 04:41:29;;;;;;;7.55;4.63;;;;;;;;;;5012067;28;20134;-67
2022/11/15 04:43:56;;;;;;;6.63;4.75;;;;;;;;;;5011855;28;20501;-67
2022/11/15 04:46:23;;;;;;;7.50;4.47;;;;;;;;;;5011949;28;20112;-67
2022/11/15 04:48:53;;;;;;;7.55;4.38;;;;;;;;;;5011485;28;20058;-68
2022/11/15 04:51:24;;;;;;;5.28;4.22;;;;;;;;;;5011685;28;20086;-68
2022/11/15 04:53:51;;;;;;;6.47;4.10;;;;;;;;;;5011851;28;20046;-67
2022/11/15 04:56:18;;;;;;;7.20;4.07;;;;;;;;;;5011959;28;20489;-68
2022/11/15 04:58:44;;;;;;;5.32;4.07;;;;;;;;;;5011076;28;20050;-68
2022/11/15 05:01:14;;;;;;;7.68;3.38;;;;;;;;;;5011828;28;20468;-67
2022/11/15 05:06:26;;;;;;;6.60;3.58;;;;;;;;;;5011780;28;20073;-67
2022/11/15 05:08:53;;;;;;;5.90;3.83;;;;;;;;;;5034436;22;20046;-68
2022/11/15 05:11:20;;;;;;;5.13;3.22;;;;;;;;;;4963495;28;20504;-68
2022/11/15 05:13:47;;;;;;;5.47;3.55;;;;;;;;;;4994369;28;20053;-67
2022/11/15 05:16:14;;;;;;;7.90;3.60;;;;;;;;;;5011669;28;20105;-66
2022/11/15 05:18:41;;;;;;;6.90;3.67;;;;;;;;;;4977900;28;20416;-67
2022/11/15 05:21:10;;;;;;;7.20;3.50;;;;;;;;;;4997408;28;20108;-67
2022/11/15 05:23:37;;;;;;;4.88;3.10;;;;;;;;;;4998010;28;20129;-67
2022/11/15 05:26:05;;;;;;;7.30;3.55;;;;;;;;;;4999466;28;20053;-66
2022/11/15 05:28:36;;;;;;;4.15;3.38;;;;;;;;;;4982436;28;20053;-66
2022/11/15 05:31:03;;;;;;;5.45;3.53;;;;;;;;;;4998787;28;20085;-67
2022/11/15 05:33:31;;;;;;;9.15;3.38;;;;;;;;;;4990698;28;20567;-67
2022/11/15 05:36:04;;;;;;;4.72;3.60;;;;;;;;;;4962651;28;20050;-67
2022/11/15 05:38:31;;;;;;;;;;;;;;;;;;4978822;28;20062;-68
2022/11/15 05:40:57;;;;;;;5.53;3.10;;;;;;;;;;4995472;28;19925;-67
2022/11/15 05:43:24;;;;;;;4.97;3.25;;;;;;;;;;4995530;28;20136;-66
2022/11/15 05:45:50;;;;;;;5.35;3.20;;;;;;;;;;4961816;28;20109;-67
2022/11/15 05:48:17;;;;;;;4.75;3.17;;;;;;;;;;4977450;28;20054;-67
2022/11/15 05:50:45;;;;;;;3.67;3.03;;;;;;;;;;4978705;28;20057;-66
2022/11/15 05:53:13;;;;;;;8.23;3.38;;;;;;;;;;4962543;28;20054;-67
2022/11/15 05:55:39;;;;;;;4.43;3.08;;;;;;;;;;4961917;28;20493;-67
2022/11/15 05:58:06;;;;;;;4.95;3.05;;;;;;;;;;4977227;28;20070;-65
2022/11/15 06:00:32;;;;;;;3.70;3.13;;;;;;;;;;4978058;28;20097;-67
2022/11/15 06:02:59;;;;;;;5.85;3.40;;;;;;;;;;4977556;28;20054;-67
2022/11/15 06:05:26;;;;;;;4.25;2.90;;;;;;;;;;4977433;28;20062;-67
2022/11/15 06:07:52;;;;;;;5.03;3.15;;;;;;;;;;4976887;28;20054;-66
2022/11/15 06:10:19;;;;;;;5.00;3.92;;;;;;;;;;4994954;28;20053;-67
2022/11/15 06:12:46;;;;;;;6.25;3.17;;;;;;;;;;4977751;28;20352;-67
2022/11/15 06:15:13;;;;;;;3.72;2.95;;;;;;;;;;4977727;28;20480;-68
2022/11/15 06:17:39;;;;;;;4.43;3.08;;;;;;;;;;4995681;28;20050;-67
2022/11/15 06:20:06;;;;;;;5.95;3.33;;;;;;;;;;4993989;28;20077;-67
2022/11/15 06:22:33;;;;;;;7.45;2.97;;;;;;;;;;4994938;28;20054;-67
2022/11/15 06:24:59;;;;;;;3.60;3.00;;;;;;;;;;4995440;28;20097;-68
2022/11/15 06:27:31;;;;;;;4.22;3.60;;;;;;;;;;5001629;28;20054;-66
2022/11/15 06:29:57;;;;;;;5.95;3.40;;;;;;;;;;5011388;28;20058;-66
2022/11/15 06:32:24;;;;;;;8.75;3.75;;;;;;;;;;5028509;28;20054;-66
2022/11/15 06:34:51;;;;;;;4.82;3.50;;;;;;;;;;5016713;28;20034;-66
2022/11/15 06:37:17;;;;;;;5.22;3.47;;;;;;;;;;5035739;28;20046;-67
2022/11/15 06:39:44;;;;;;;5.93;3.33;;;;;;;;;;5012559;28;20049;-66
2022/11/15 06:42:10;;;;;;;5.45;3.33;;;;;;;;;;5029364;28;20062;-66
2022/11/15 06:44:37;;;;;;;5.32;3.75;;;;;;;;;;5032510;28;20056;-65
2022/11/15 06:47:04;;;;;;;7.03;3.75;;;;;;;;;;5032094;28;20493;-65
2022/11/15 06:49:30;;;;;;;6.35;4.22;;;;;;;;;;5032956;28;20050;-65
2022/11/15 06:51:57;;;;;;;7.40;4.88;;;;;;;;;;4997459;28;20476;-66
2022/11/15 06:54:24;;;;;;;8.63;5.90;;;;;;;;;;4995939;28;20042;-67
2022/11/15 06:56:50;;;;;;;7.10;5.43;;;;;;;;;;5013813;28;20451;-66
2022/11/15 06:59:17;;;;;;;12.75;6.57;;;;;;;;;;4995328;28;20054;-67
2022/11/15 07:01:43;;;;;;;11.07;6.85;;;;;;;;;;5013285;28;20100;-66
2022/11/15 07:04:10;;;;;;;10.30;6.93;;;;;;;;;;5013373;28;20048;-67
2022/11/15 07:06:37;;;;;;;9.40;6.85;;;;;;;;;;4996037;28;20050;-67
2022/11/15 07:09:03;;;;;;;9.20;6.30;;;;;;;;;;4995332;28;20049;-67
2022/11/15 07:11:30;;;;;;;11.25;7.35;;;;;;;;;;4979381;28;20512;-67
2022/11/15 07:13:57;;;;;;;13.50;7.20;;;;;;;;;;4995888;28;20108;-66
2022/11/15 07:16:23;;;;;;;9.20;6.38;;;;;;;;;;5012856;28;20046;-67
2022/11/15 07:18:50;;;;;;;8.05;6.30;;;;;;;;;;5011532;28;20105;-65
2022/11/15 07:21:17;;;;;;;9.15;5.78;;;;;;;;;;4995621;28;20049;-67
2022/11/15 07:23:44;;;;;;;7.03;5.18;;;;;;;;;;5011094;28;20054;-66
2022/11/15 07:26:10;;;;;;;8.32;5.28;;;;;;;;;;5005640;28;20105;-65
2022/11/15 07:28:37;;;;;;;8.40;5.50;;;;;;;;;;4989374;28;20483;-67
2022/11/15 07:31:05;;;;;;;7.82;4.85;;;;;;;;;;4997756;28;20081;-67
2022/11/15 07:33:32;;;;;;;7.53;4.97;;;;;;;;;;5010574;28;20272;-67
2022/11/15 07:36:04;;;;;;;10.20;6.65;;;;;;;;;;5010502;28;20419;-66
2022/11/15 07:38:30;;;;;;;8.02;5.50;;;;;;;;;;5008443;28;20147;-66
2022/11/15 07:41:01;;;;;;;6.97;5.00;;;;;;;;;;5008820;28;20094;-66
2022/11/15 07:43:29;;;;;;;7.53;4.95;;;;;;;;;;5006992;28;20143;-66
2022/11/15 07:45:56;;;;;;;7.68;4.50;;;;;;;;;;4980813;28;20050;-67
2022/11/15 07:48:25;;;;;;;6.30;4.28;;;;;;;;;;4990598;28;20053;-66
2022/11/15 07:51:11;;;;;;;7.00;3.75;;;;;;;;;;5010527;28;20054;-66
2022/11/15 07:53:40;;;;;;;5.28;4.03;;;;;;;;;;4992590;28;20133;-67
2022/11/15 07:56:07;;;;;;;8.80;4.60;;;;;;;;;;5009945;28;20046;-67
2022/11/15 07:58:34;;;;;;;9.27;6.30;;;;;;;;;;4992586;28;20049;-66
2022/11/15 08:01:07;;;;;;;8.13;4.80;;;;;;;;;;4993330;28;20050;-67
2022/11/15 08:03:34;;;;;;;8.55;4.80;;;;;;;;;;4990880;28;20548;-66
2022/11/15 08:06:01;;;;;;;8.52;4.88;;;;;;;;;;4992913;28;20553;-65
2022/11/15 08:08:28;;;;;;;7.30;4.53;;;;;;;;;;4992309;28;20061;-66
2022/11/15 08:10:56;;;;;;;8.38;5.53;;;;;;;;;;4986630;28;20112;-67
2022/11/15 08:13:23;;;;;;;6.38;5.10;;;;;;;;;;4973186;28;20085;-67
2022/11/15 08:15:49;;;;;;;6.38;3.50;;;;;;;;;;5009771;28;20103;-66
2022/11/15 08:18:23;;;;;;;3.97;3.40;;;;;;;;;;5010159;28;20057;-66
2022/11/15 08:20:49;;;;;;;5.60;3.10;;;;;;;;;;5009573;28;20057;-66
2022/11/15 08:23:16;;;;;;;4.65;2.97;;;;;;;;;;5010235;28;20049;-66
2022/11/15 08:25:43;;;;;;;4.65;3.05;;;;;;;;;;4993073;28;20045;-65
2022/11/15 08:28:10;;;;;;;5.60;3.60;;;;;;;;;;5002636;28;20113;-66
2022/11/15 08:30:38;;;;;;;6.32;3.80;;;;;;;;;;4972982;28;20058;-66
2022/11/15 08:33:05;;;;;;;5.32;3.30;;;;;;;;;;4972935;28;20062;-66
2022/11/15 08:35:31;;;;;;;4.15;3.08;;;;;;;;;;4990667;28;20097;-67
2022/11/15 08:37:58;;;;;;;4.40;3.42;;;;;;;;;;4972923;28;20356;-65
2022/11/15 08:40:26;;;;;;;5.88;3.10;;;;;;;;;;4990227;28;20108;-66
2022/11/15 08:42:53;;;;;;;4.38;3.05;;;;;;;;;;4996866;28;20064;-67
2022/11/15 08:45:20;;;;;;;6.20;3.35;;;;;;;;;;5009658;28;20053;-67
2022/11/15 08:47:46;;;;;;;6.22;3.60;;;;;;;;;;5009370;28;20057;-67
2022/11/15 08:50:19;;;;;;;4.22;3.10;;;;;;;;;;4994083;28;20370;-68
2022/11/15 08:52:47;;;;;;;5.03;2.60;;;;;;;;;;5008643;28;20120;-68
2022/11/15 08:55:14;;;;;;;5.18;3.13;;;;;;;;;;5013528;28;20130;-67
2022/11/15 08:57:43;;;;;;;9.65;3.00;;;;;;;;;;5004902;28;20054;-67
2022/11/15 09:00:11;;;;;;;4.70;2.70;;;;;;;;;;4998242;28;20050;-69
2022/11/15 09:02:41;;;;;;;3.92;2.70;;;;;;;;;;5016364;28;20061;-68
2022/11/15 09:05:08;;;;;;;7.78;3.50;;;;;;;;;;5014461;28;20050;-66
2022/11/15 09:07:35;;;;;;;6.43;4.18;;;;;;;;;;5012936;28;20049;-68
2022/11/15 09:10:03;;;;;;;5.60;3.97;;;;;;;;;;5013029;28;20132;-66
2022/11/15 09:12:29;;;;;;;9.55;4.03;;;;;;;;;;5001242;28;20057;-67
2022/11/15 09:14:56;;;;;;;5.25;3.35;;;;;;;;;;5015428;28;20049;-67
2022/11/15 09:17:22;;;;;;;6.25;3.55;;;;;;;;;;5015391;28;20058;-67
2022/11/15 09:19:50;;;;;;;6.47;3.65;;;;;;;;;;5013163;28;20389;-66
2022/11/15 09:22:17;;;;;;;7.80;4.13;;;;;;;;;;5015560;28;20053;-67
2022/11/15 09:24:44;;;;;;;5.18;3.08;;;;;;;;;;4996546;28;20042;-67
2022/11/15 09:27:11;;;;;;;3.50;2.60;;;;;;;;;;4978180;28;20054;-66
2022/11/15 09:29:38;;;;;;;5.38;2.75;;;;;;;;;;4977267;28;20054;-66
2022/11/15 09:32:05;;;;;;;4.28;2.60;;;;;;;;;;4995629;28;20105;-67
2022/11/15 09:34:31;;;;;;;7.82;3.17;;;;;;;;;;4977974;28;20109;-67
2022/11/15 09:36:58;;;;;;;6.97;3.00;;;;;;;;;;4995376;28;20074;-66
2022/11/15 09:39:25;;;;;;;4.50;3.42;;;;;;;;;;4994805;28;20054;-66
2022/11/15 09:42:13;;;;;;;7.68;3.35;;;;;;;;;;5014775;28;20050;-68
2022/11/15 09:44:58;;;;;;;9.90;3.40;;;;;;;;;;5015082;28;20401;-67
2022/11/15 09:47:32;;;;;;;6.80;3.08;;;;;;;;;;5014898;28;20049;-66
2022/11/15 09:50:00;;;;;;;3.42;2.95;;;;;;;;;;5013904;28;20468;-66
2022/11/15 09:52:27;;;;;;;5.00;3.17;;;;;;;;;;4997234;28;20045;-67
2022/11/15 09:54:54;;;;;;;4.50;3.22;;;;;;;;;;5002816;28;20100;-67
2022/11/15 09:57:42;;;;;;;6.80;3.08;;;;;;;;;;4997609;28;20050;-66
2022/11/15 10:00:26;;;;;;;4.97;2.75;;;;;;;;;;4996543;28;20500;-66
2022/11/15 10:03:23;;;;;;;6.57;3.28;;;;;;;;;;4986875;28;20081;-66
2022/11/15 10:05:51;;;;;;;6.65;3.10;;;;;;;;;;4980268;28;20100;-68
2022/11/15 10:08:44;;;;;;;6.32;2.90;;;;;;;;;;4979772;28;20046;-66
2022/11/15 10:11:11;;;;;;;3.80;2.95;;;;;;;;;;4998282;28;20455;-66
2022/11/15 10:14:25;;;;;;;5.53;3.30;;;;;;;;;;4999540;28;20057;-66
2022/11/15 10:17:13;;;;;;;5.68;2.80;;;;;;;;;;4995509;28;20085;-66
2022/11/15 10:19:46;;;;;;;4.97;3.15;;;;;;;;;;5013089;28;20053;-66
2022/11/15 10:22:47;;;;;;;4.53;3.28;;;;;;;;;;5010700;28;20042;-69
2022/11/15 10:25:27;;;;;;;3.83;3.20;;;;;;;;;;4974218;28;20046;-66
2022/11/15 10:28:16;;;;;;;5.88;2.88;;;;;;;;;;4976964;28;20050;-67
2022/11/15 10:30:48;;;;;;;4.30;2.55;;;;;;;;;;4961789;28;20457;-66
2022/11/15 10:33:30;;;;;;;3.97;2.60;;;;;;;;;;4961753;28;20464;-67
2022/11/15 10:36:08;;;;;;;5.22;3.13;;;;;;;;;;4994048;28;20046;-68
2022/11/15 10:38:47;;;;;;;6.85;3.10;;;;;;;;;;5009442;28;20054;-68
2022/11/15 10:41:22;;;;;;;5.15;2.97;;;;;;;;;;4996166;28;20513;-66
2022/11/15 10:44:18;;;;;;;6.57;3.17;;;;;;;;;;4996392;28;20088;-66
2022/11/15 10:46:48;;;;;;;5.40;2.97;;;;;;;;;;5012591;28;20104;-69
2022/11/15 10:49:19;;;;;;;5.60;3.17;;;;;;;;;;4995989;28;20298;-68
2022/11/15 10:51:49;;;;;;;4.13;2.72;;;;;;;;;;5003029;28;20050;-68
2022/11/15 10:54:37;;;;;;;6.63;2.80;;;;;;;;;;4974276;28;21581;-71
2022/11/15 10:57:13;;;;;;;4.07;2.35;;;;;;;;;;5002153;28;20049;-67
2022/11/15 10:59:46;;;;;;;3.05;2.00;;;;;;;;;;4984223;28;20058;-67
2022/11/15 11:02:36;;;;;;;5.88;2.83;;;;;;;;;;4974307;28;20050;-68
2022/11/15 11:05:04;;;;;;;4.10;2.88;;;;;;;;;;5002467;28;20554;-69
2022/11/15 11:07:33;;;;;;;6.25;3.00;;;;;;;;;;4983325;28;20100;-67
2022/11/15 11:10:19;;;;;;;5.10;2.67;;;;;;;;;;5016856;23;20131;-68
2022/11/15 11:13:29;;;;;;;4.50;2.67;;;;;;;;;;5037852;28;20584;-70
2022/11/15 11:16:14;;;;;;;5.60;3.20;;;;;;;;;;5039947;28;20103;-68
2022/11/15 11:19:06;;;;;;;5.35;2.78;;;;;;;;;;5045314;28;20044;-66
2022/11/15 11:21:56;;;;;;;5.55;2.97;;;;;;;;;;5016941;28;20122;-69
2022/11/15 11:24:47;;;;;;;6.78;3.17;;;;;;;;;;5019798;28;20045;-72
2022/11/15 11:27:20;;;;;;;4.15;2.90;;;;;;;;;;5018809;28;20088;-70
2022/11/15 11:30:02;;;;;;;5.07;2.50;;;;;;;;;;5018869;28;20045;-71
2022/11/15 11:32:47;;;;;;;4.22;3.45;;;;;;;;;;5026319;28;20397;-69
2022/11/15 11:35:44;;;;;;;6.38;2.50;;;;;;;;;;5021007;28;20057;-69
2022/11/15 11:38:19;;;;;;;3.40;2.10;;;;;;;;;;5012073;28;20053;-68
2022/11/15 11:41:02;;;;;;;3.92;2.15;;;;;;;;;;5019449;28;20084;-70
2022/11/15 11:43:48;;;;;;;4.85;1.70;;;;;;;;;;5017027;28;20524;-68
2022/11/15 11:46:24;;;;;;;3.78;1.75;;;;;;;;;;5028326;28;20828;-72
2022/11/15 11:49:00;;;;;;;4.53;2.08;;;;;;;;;;5025245;28;20072;-71
2022/11/15 11:51:31;;;;;;;3.75;1.75;;;;;;;;;;5023559;28;20042;-71
2022/11/15 11:54:06;;;;;;;3.17;1.98;;;;;;;;;;5005323;28;20053;-69
2022/11/15 11:56:36;;;;;;;4.28;2.30;;;;;;;;;;5022653;28;20041;-73
2022/11/15 11:59:22;;;;;;;5.75;2.10;;;;;;;;;;5015739;28;20108;-70
2022/11/15 12:01:49;;;;;;;5.95;2.22;;;;;;;;;;5015170;28;20087;-68
2022/11/15 12:04:28;;;;;;;4.43;2.05;;;;;;;;;;5004753;28;20056;-69
2022/11/15 12:07:03;;;;;;;3.33;1.88;;;;;;;;;;5019270;28;20096;-70
2022/11/15 12:10:05;;;;;;;4.65;1.80;;;;;;;;;;5015681;28;20049;-69
2022/11/15 12:12:39;;;;;;;3.58;1.95;;;;;;;;;;5018414;28;20065;-67
2022/11/15 12:15:09;;;;;;;3.40;1.80;;;;;;;;;;5017275;28;20053;-70
2022/11/15 12:17:37;;;;;;;3.15;2.03;;;;;;;;;;5018240;28;20053;-66
2022/11/15 12:20:09;;;;;;;3.28;2.05;;;;;;;;;;5022556;28;20057;-65
2022/11/15 12:22:38;;;;;;;3.00;1.80;;;;;;;;;;5010119;28;20515;-66
2022/11/15 12:25:28;;;;;;;5.18;1.80;;;;;;;;;;5017337;28;20057;-67
2022/11/15 12:28:15;;;;;;;5.18;1.50;;;;;;;;;;5000273;28;20108;-70
2022/11/15 12:30:49;;;;;;;2.08;1.48;;;;;;;;;;5013519;28;20212;-69
2022/11/15 12:33:32;;;;;;;4.47;1.90;;;;;;;;;;5007460;28;20057;-69
2022/11/15 12:36:02;;;;;;;1.83;1.60;;;;;;;;;;5027544;28;20053;-69
2022/11/15 12:38:57;;;;;;;3.28;1.80;;;;;;;;;;5023255;28;20053;-69
2022/11/15 12:41:25;;;;;;;5.07;1.60;;;;;;;;;;5018778;28;20528;-70
2022/11/15 12:43:52;;;;;;;3.30;1.83;;;;;;;;;;5017420;28;20049;-69
2022/11/15 12:46:28;;;;;;;2.22;1.30;;;;;;;;;;5021839;28;20104;-70
2022/11/15 12:49:02;;;;;;;2.08;1.60;;;;;;;;;;5020401;28;20419;-71
2022/11/15 12:51:47;;;;;;;3.83;2.22;;;;;;;;;;5027056;28;20103;-69
2022/11/15 12:54:23;;;;;;;5.88;2.63;;;;;;;;;;5018779;28;20077;-69
2022/11/15 12:57:08;;;;;;;7.22;1.60;;;;;;;;;;5018816;28;20057;-68
2022/11/15 13:00:13;;;;;;;5.63;2.17;;;;;;;;;;5021600;28;20057;-69
2022/11/15 13:02:45;;;;;;;2.50;1.40;;;;;;;;;;4994875;28;20093;-69
2022/11/15 13:05:20;;;;;;;3.40;1.83;;;;;;;;;;4971061;28;20077;-66
2022/11/15 13:07:46;;;;;;;4.28;1.77;;;;;;;;;;5008762;28;20115;-66
2022/11/15 13:10:13;;;;;;;3.55;1.60;;;;;;;;;;5025760;28;20095;-66
2022/11/15 13:12:42;;;;;;;3.40;1.70;;;;;;;;;;5022607;28;20050;-66
2022/11/15 13:15:12;;;;;;;4.07;2.10;;;;;;;;;;5022225;28;20096;-67
2022/11/15 13:17:40;;;;;;;2.85;2.15;;;;;;;;;;5021620;28;20079;-69
2022/11/15 13:20:06;;;;;;;3.05;1.98;;;;;;;;;;5013680;28;20104;-68
2022/11/15 13:23:04;;;;;;;3.50;1.70;;;;;;;;;;5020560;28;20049;-67
2022/11/15 13:25:31;;;;;;;5.47;1.52;;;;;;;;;;5014902;28;20041;-68
2022/11/15 13:27:57;;;;;;;2.03;1.55;;;;;;;;;;5015834;28;20053;-69
2022/11/15 13:30:30;;;;;;;;;;;;;;;;;;5016875;28;20052;-68
2022/11/15 13:33:00;;;;;;;3.15;1.45;;;;;;;;;;5015864;28;19921;-67
2022/11/15 13:35:28;;;;;;;5.00;1.70;;;;;;;;;;5010919;28;20053;-68
2022/11/15 13:37:56;;;;;;;2.67;1.20;;;;;;;;;;5014219;28;20061;-67
2022/11/15 13:40:30;;;;;;;2.40;1.67;;;;;;;;;;5016528;28;20424;-67
2022/11/15 13:42:58;;;;;;;2.40;1.52;;;;;;;;;;5024392;28;20554;-65
2022/11/15 13:45:24;;;;;;;2.05;1.20;;;;;;;;;;5029197;28;20050;-65
2022/11/15 13:47:56;;;;;;;1.92;1.17;;;;;;;;;;5019819;28;20080;-65
2022/11/15 13:50:28;;;;;;;2.90;1.30;;;;;;;;;;5025809;28;20454;-65
2022/11/15 13:52:57;;;;;;;2.90;1.27;;;;;;;;;;5014611;28;20046;-65
2022/11/15 13:55:24;;;;;;;2.08;1.50;;;;;;;;;;5022581;28;20516;-65
2022/11/15 13:57:58;;;;;;;2.28;1.58;;;;;;;;;;5020446;28;20471;-64
2022/11/15 14:00:39;;;;;;;3.70;1.95;;;;;;;;;;5029814;28;20504;-65
2022/11/15 14:03:15;;;;;;;3.22;2.05;;;;;;;;;;5030804;28;20051;-65
2022/11/15 14:05:41;;;;;;;5.05;2.38;;;;;;;;;;5021396;28;20504;-65
2022/11/15 14:08:19;;;;;;;3.72;2.45;;;;;;;;;;5019289;28;20527;-64
2022/11/15 14:10:47;;;;;;;4.75;3.33;;;;;;;;;;5025946;28;20041;-66
2022/11/15 14:13:30;;;;;;;3.85;2.50;;;;;;;;;;5022570;28;20491;-65
2022/11/15 14:16:19;;;;;;;5.07;2.22;;;;;;;;;;5023055;28;20088;-66
2022/11/15 14:18:47;;;;;;;2.22;1.60;;;;;;;;;;5040081;28;20099;-65
2022/11/15 14:21:14;;;;;;;3.75;1.85;;;;;;;;;;5034888;28;20053;-65
2022/11/15 14:23:41;;;;;;;2.50;1.60;;;;;;;;;;5032654;28;20118;-65
2022/11/15 14:26:26;;;;;;;3.72;1.77;;;;;;;;;;5023715;28;20064;-65
2022/11/15 14:28:56;;;;;;;3.25;1.63;;;;;;;;;;5021992;28;21084;-66
2022/11/15 14:31:23;;;;;;;3.70;1.50;;;;;;;;;;5021416;28;20053;-66
2022/11/15 14:33:50;;;;;;;2.97;1.60;;;;;;;;;;5020363;28;20107;-66
2022/11/15 14:36:20;;;;;;;3.92;1.92;;;;;;;;;;5018379;28;20123;-66
2022/11/15 14:38:50;;;;;;;4.75;1.90;;;;;;;;;;5020865;28;20046;-65
2022/11/15 14:41:24;;;;;;;3.53;2.03;;;;;;;;;;5020388;28;20095;-65
2022/11/15 14:43:51;;;;;;;4.20;2.50;;;;;;;;;;5023326;28;20053;-65
2022/11/15 14:46:18;;;;;;;3.85;2.22;;;;;;;;;;5022693;28;20079;-65
2022/11/15 14:48:45;;;;;;;2.22;1.70;;;;;;;;;;5019808;28;20049;-65
2022/11/15 14:51:13;;;;;;;4.18;1.95;;;;;;;;;;5019714;28;20053;-65
2022/11/15 14:53:42;;;;;;;3.50;1.65;;;;;;;;;;5018598;28;20077;-64
2022/11/15 14:56:09;;;;;;;3.35;2.00;;;;;;;;;;5023835;28;20069;-65
2022/11/15 14:58:36;;;;;;;2.35;1.90;;;;;;;;;;5025543;28;20110;-66
2022/11/15 15:01:19;;;;;;;5.05;2.35;;;;;;;;;;5020491;28;20053;-65
2022/11/15 15:03:47;;;;;;;3.88;1.75;;;;;;;;;;5014158;28;20483;-65
2022/11/15 15:06:14;;;;;;;5.88;3.90;;;;;;;;;;5020658;28;20049;-65
2022/11/15 15:08:45;;;;;;;7.55;4.53;;;;;;;;;;5021977;28;20057;-65
2022/11/15 15:11:25;;;;;;;6.68;3.30;;;;;;;;;;5023054;28;20053;-65
2022/11/15 15:13:53;;;;;;;6.05;3.20;;;;;;;;;;5011914;28;20068;-66
2022/11/15 15:16:19;;;;;;;5.82;2.88;;;;;;;;;;5025575;28;20444;-65
2022/11/15 15:18:46;;;;;;;5.35;2.55;;;;;;;;;;5017931;28;20133;-65
2022/11/15 15:21:24;;;;;;;5.95;2.78;;;;;;;;;;5019842;28;20095;-65
2022/11/15 15:23:51;;;;;;;6.10;2.85;;;;;;;;;;5021670;28;20101;-65